Terminal Aerodrome Forecast
Issued by NWS Paducah, KY

Home | Current Version | Previous Version | Text Only | Print | Product List | Glossary Off
Versions: 1 2 3 4 5 6 7 8 9 10 11 12 13 14 15 16 17 18 19 20

499
FTUS43 KPAH 230131 AAA
TAFEVV
TAF AMD
KEVV 230131Z 2302/2324 24016G28KT P6SM SCT070
     FM230500 23011G20KT P6SM OVC050
     FM231000 25013G23KT P6SM OVC025
     FM231300 26014G22KT P6SM OVC015
     FM232000 28014G22KT P6SM OVC025=

USA.gov is the U.S. government's official web portal to all federal, state and local government web resources and services.